sensor_id;sensor_type;location;lat;lon;timestamp;P1;durP1;ratioP1;P2;durP2;ratioP2
52106;SDS011;38105;52.968;5.974;2023-03-14T00:00:31;31.63;;;5.93;;
52106;SDS011;38105;52.968;5.974;2023-03-14T00:02:57;29.23;;;4.97;;
52106;SDS011;38105;52.968;5.974;2023-03-14T00:05:23;34.75;;;6.25;;
52106;SDS011;38105;52.968;5.974;2023-03-14T00:07:49;24.30;;;4.55;;
52106;SDS011;38105;52.968;5.974;2023-03-14T00:10:15;26.83;;;5.80;;
52106;SDS011;38105;52.968;5.974;2023-03-14T00:12:41;28.42;;;4.20;;
52106;SDS011;38105;52.968;5.974;2023-03-14T00:15:07;21.70;;;4.50;;
52106;SDS011;38105;52.968;5.974;2023-03-14T00:17:34;26.77;;;5.30;;
52106;SDS011;38105;52.968;5.974;2023-03-14T00:20:00;24.55;;;5.07;;
52106;SDS011;38105;52.968;5.974;2023-03-14T00:22:35;31.17;;;5.85;;
52106;SDS011;38105;52.968;5.974;2023-03-14T00:25:05;24.70;;;5.03;;
52106;SDS011;38105;52.968;5.974;2023-03-14T00:27:32;29.85;;;4.43;;
52106;SDS011;38105;52.968;5.974;2023-03-14T00:29:58;26.98;;;4.95;;
52106;SDS011;38105;52.968;5.974;2023-03-14T00:32:23;30.70;;;5.53;;
52106;SDS011;38105;52.968;5.974;2023-03-14T00:34:49;33.45;;;5.57;;
52106;SDS011;38105;52.968;5.974;2023-03-14T00:37:15;27.05;;;4.55;;
52106;SDS011;38105;52.968;5.974;2023-03-14T00:39:40;26.90;;;5.70;;
52106;SDS011;38105;52.968;5.974;2023-03-14T00:42:06;29.80;;;5.50;;
52106;SDS011;38105;52.968;5.974;2023-03-14T00:44:32;29.60;;;4.60;;
52106;SDS011;38105;52.968;5.974;2023-03-14T00:46:58;30.90;;;4.97;;
52106;SDS011;38105;52.968;5.974;2023-03-14T00:49:23;20.75;;;4.60;;
52106;SDS011;38105;52.968;5.974;2023-03-14T00:51:49;24.33;;;4.88;;
52106;SDS011;38105;52.968;5.974;2023-03-14T00:54:16;22.63;;;3.75;;
52106;SDS011;38105;52.968;5.974;2023-03-14T00:56:42;22.90;;;4.38;;
52106;SDS011;38105;52.968;5.974;2023-03-14T00:59:08;30.20;;;4.93;;
52106;SDS011;38105;52.968;5.974;2023-03-14T01:01:34;23.73;;;4.22;;
52106;SDS011;38105;52.968;5.974;2023-03-14T01:04:00;25.80;;;4.63;;
52106;SDS011;38105;52.968;5.974;2023-03-14T01:06:28;27.77;;;4.95;;
52106;SDS011;38105;52.968;5.974;2023-03-14T01:08:55;22.23;;;4.45;;
52106;SDS011;38105;52.968;5.974;2023-03-14T01:11:26;30.42;;;4.72;;
52106;SDS011;38105;52.968;5.974;2023-03-14T01:13:54;24.13;;;3.75;;
52106;SDS011;38105;52.968;5.974;2023-03-14T01:16:21;22.98;;;4.00;;
52106;SDS011;38105;52.968;5.974;2023-03-14T01:18:48;28.77;;;4.22;;
52106;SDS011;38105;52.968;5.974;2023-03-14T01:21:21;25.45;;;4.65;;
52106;SDS011;38105;52.968;5.974;2023-03-14T01:23:48;27.02;;;3.85;;
52106;SDS011;38105;52.968;5.974;2023-03-14T01:26:16;24.75;;;4.20;;
52106;SDS011;38105;52.968;5.974;2023-03-14T01:28:46;21.27;;;3.38;;
52106;SDS011;38105;52.968;5.974;2023-03-14T01:31:12;21.70;;;4.07;;
52106;SDS011;38105;52.968;5.974;2023-03-14T01:33:39;23.77;;;3.25;;
52106;SDS011;38105;52.968;5.974;2023-03-14T01:36:05;26.90;;;4.07;;
52106;SDS011;38105;52.968;5.974;2023-03-14T01:38:32;19.50;;;3.22;;
52106;SDS011;38105;52.968;5.974;2023-03-14T01:40:59;23.35;;;4.07;;
52106;SDS011;38105;52.968;5.974;2023-03-14T01:43:25;23.48;;;3.30;;
52106;SDS011;38105;52.968;5.974;2023-03-14T01:48:34;18.95;;;3.05;;
52106;SDS011;38105;52.968;5.974;2023-03-14T01:51:02;19.30;;;3.03;;
52106;SDS011;38105;52.968;5.974;2023-03-14T01:53:33;18.25;;;3.67;;
52106;SDS011;38105;52.968;5.974;2023-03-14T01:56:01;16.20;;;3.30;;
52106;SDS011;38105;52.968;5.974;2023-03-14T01:58:28;20.05;;;3.00;;
52106;SDS011;38105;52.968;5.974;2023-03-14T02:00:57;27.13;;;3.50;;
52106;SDS011;38105;52.968;5.974;2023-03-14T02:03:24;17.20;;;3.20;;
52106;SDS011;38105;52.968;5.974;2023-03-14T02:05:51;24.23;;;3.65;;
52106;SDS011;38105;52.968;5.974;2023-03-14T02:08:20;22.88;;;3.08;;
52106;SDS011;38105;52.968;5.974;2023-03-14T02:10:48;19.50;;;2.92;;
52106;SDS011;38105;52.968;5.974;2023-03-14T02:13:16;14.15;;;3.08;;
52106;SDS011;38105;52.968;5.974;2023-03-14T02:15:43;20.10;;;3.58;;
52106;SDS011;38105;52.968;5.974;2023-03-14T02:18:09;21.63;;;2.72;;
52106;SDS011;38105;52.968;5.974;2023-03-14T02:23:31;22.00;;;3.45;;
52106;SDS011;38105;52.968;5.974;2023-03-14T02:26:06;19.13;;;2.65;;
52106;SDS011;38105;52.968;5.974;2023-03-14T02:28:40;18.33;;;3.33;;
52106;SDS011;38105;52.968;5.974;2023-03-14T02:31:06;21.33;;;2.78;;
52106;SDS011;38105;52.968;5.974;2023-03-14T02:33:33;15.50;;;2.72;;
52106;SDS011;38105;52.968;5.974;2023-03-14T02:36:03;18.15;;;3.05;;
52106;SDS011;38105;52.968;5.974;2023-03-14T02:38:50;17.50;;;2.78;;
52106;SDS011;38105;52.968;5.974;2023-03-14T02:41:29;16.83;;;2.97;;
52106;SDS011;38105;52.968;5.974;2023-03-14T02:43:55;22.25;;;3.53;;
52106;SDS011;38105;52.968;5.974;2023-03-14T02:46:21;20.10;;;3.33;;
52106;SDS011;38105;52.968;5.974;2023-03-14T02:48:51;21.13;;;3.08;;
52106;SDS011;38105;52.968;5.974;2023-03-14T02:51:21;15.40;;;3.08;;
52106;SDS011;38105;52.968;5.974;2023-03-14T02:53:48;23.17;;;3.78;;
52106;SDS011;38105;52.968;5.974;2023-03-14T02:56:14;24.75;;;3.67;;
52106;SDS011;38105;52.968;5.974;2023-03-14T02:58:40;18.60;;;3.83;;
52106;SDS011;38105;52.968;5.974;2023-03-14T03:01:05;26.30;;;3.80;;
52106;SDS011;38105;52.968;5.974;2023-03-14T03:03:31;19.83;;;3.13;;
52106;SDS011;38105;52.968;5.974;2023-03-14T03:05:57;25.23;;;5.45;;
52106;SDS011;38105;52.968;5.974;2023-03-14T03:08:24;23.95;;;3.40;;
52106;SDS011;38105;52.968;5.974;2023-03-14T03:10:51;22.33;;;4.22;;
52106;SDS011;38105;52.968;5.974;2023-03-14T03:13:17;25.80;;;4.03;;
52106;SDS011;38105;52.968;5.974;2023-03-14T03:15:43;30.00;;;4.38;;
52106;SDS011;38105;52.968;5.974;2023-03-14T03:18:09;24.63;;;3.60;;
52106;SDS011;38105;52.968;5.974;2023-03-14T03:20:35;28.42;;;4.55;;
52106;SDS011;38105;52.968;5.974;2023-03-14T03:23:01;27.38;;;3.78;;
52106;SDS011;38105;52.968;5.974;2023-03-14T03:25:26;25.60;;;4.43;;
52106;SDS011;38105;52.968;5.974;2023-03-14T03:27:53;29.90;;;4.68;;
52106;SDS011;38105;52.968;5.974;2023-03-14T03:30:18;36.83;;;5.63;;
52106;SDS011;38105;52.968;5.974;2023-03-14T03:32:44;35.88;;;4.78;;
52106;SDS011;38105;52.968;5.974;2023-03-14T03:35:10;29.63;;;4.57;;
52106;SDS011;38105;52.968;5.974;2023-03-14T03:37:36;35.13;;;4.68;;
52106;SDS011;38105;52.968;5.974;2023-03-14T03:40:02;31.58;;;4.45;;
52106;SDS011;38105;52.968;5.974;2023-03-14T03:42:31;34.20;;;4.68;;
52106;SDS011;38105;52.968;5.974;2023-03-14T03:44:58;34.22;;;4.90;;
52106;SDS011;38105;52.968;5.974;2023-03-14T03:47:25;41.10;;;5.13;;
52106;SDS011;38105;52.968;5.974;2023-03-14T03:49:51;36.33;;;5.07;;
52106;SDS011;38105;52.968;5.974;2023-03-14T03:52:16;34.65;;;5.20;;
52106;SDS011;38105;52.968;5.974;2023-03-14T03:54:42;31.25;;;5.22;;
52106;SDS011;38105;52.968;5.974;2023-03-14T03:57:08;33.03;;;4.18;;
52106;SDS011;38105;52.968;5.974;2023-03-14T03:59:33;32.33;;;5.10;;
52106;SDS011;38105;52.968;5.974;2023-03-14T04:01:59;32.67;;;4.90;;
52106;SDS011;38105;52.968;5.974;2023-03-14T04:04:25;32.60;;;4.95;;
52106;SDS011;38105;52.968;5.974;2023-03-14T04:06:50;31.08;;;4.78;;
52106;SDS011;38105;52.968;5.974;2023-03-14T04:09:16;33.38;;;5.00;;
52106;SDS011;38105;52.968;5.974;2023-03-14T04:11:42;29.40;;;4.78;;
52106;SDS011;38105;52.968;5.974;2023-03-14T04:14:08;31.35;;;5.75;;
52106;SDS011;38105;52.968;5.974;2023-03-14T04:16:34;26.88;;;5.10;;
52106;SDS011;38105;52.968;5.974;2023-03-14T04:19:00;30.85;;;5.80;;
52106;SDS011;38105;52.968;5.974;2023-03-14T04:21:26;30.58;;;5.55;;
52106;SDS011;38105;52.968;5.974;2023-03-14T04:23:52;37.65;;;7.55;;
52106;SDS011;38105;52.968;5.974;2023-03-14T04:26:18;28.13;;;6.38;;
52106;SDS011;38105;52.968;5.974;2023-03-14T04:28:44;36.15;;;7.72;;
52106;SDS011;38105;52.968;5.974;2023-03-14T04:31:10;28.33;;;7.88;;
52106;SDS011;38105;52.968;5.974;2023-03-14T04:33:46;34.95;;;8.18;;
52106;SDS011;38105;52.968;5.974;2023-03-14T04:36:12;32.10;;;7.82;;
52106;SDS011;38105;52.968;5.974;2023-03-14T04:38:38;29.98;;;8.55;;
52106;SDS011;38105;52.968;5.974;2023-03-14T04:41:04;28.58;;;7.78;;
52106;SDS011;38105;52.968;5.974;2023-03-14T04:43:30;34.53;;;8.63;;
52106;SDS011;38105;52.968;5.974;2023-03-14T04:45:56;29.73;;;10.05;;
52106;SDS011;38105;52.968;5.974;2023-03-14T04:48:23;31.27;;;9.80;;
52106;SDS011;38105;52.968;5.974;2023-03-14T04:50:49;32.78;;;10.02;;
52106;SDS011;38105;52.968;5.974;2023-03-14T04:53:15;29.35;;;9.95;;
52106;SDS011;38105;52.968;5.974;2023-03-14T04:55:41;35.55;;;9.55;;
52106;SDS011;38105;52.968;5.974;2023-03-14T04:58:12;27.42;;;9.00;;
52106;SDS011;38105;52.968;5.974;2023-03-14T05:00:37;37.70;;;10.10;;
52106;SDS011;38105;52.968;5.974;2023-03-14T05:03:03;28.92;;;8.65;;
52106;SDS011;38105;52.968;5.974;2023-03-14T05:05:29;34.42;;;9.07;;
52106;SDS011;38105;52.968;5.974;2023-03-14T05:07:54;24.38;;;8.27;;
52106;SDS011;38105;52.968;5.974;2023-03-14T05:10:20;25.02;;;7.47;;
52106;SDS011;38105;52.968;5.974;2023-03-14T05:12:45;27.42;;;8.45;;
52106;SDS011;38105;52.968;5.974;2023-03-14T05:15:11;22.08;;;7.65;;
52106;SDS011;38105;52.968;5.974;2023-03-14T05:17:37;22.80;;;8.40;;
52106;SDS011;38105;52.968;5.974;2023-03-14T05:20:02;20.65;;;7.97;;
52106;SDS011;38105;52.968;5.974;2023-03-14T05:22:38;20.90;;;8.45;;
52106;SDS011;38105;52.968;5.974;2023-03-14T05:25:04;33.78;;;9.15;;
52106;SDS011;38105;52.968;5.974;2023-03-14T05:27:31;21.38;;;8.10;;
52106;SDS011;38105;52.968;5.974;2023-03-14T05:29:57;28.77;;;9.05;;
52106;SDS011;38105;52.968;5.974;2023-03-14T05:32:22;22.48;;;7.68;;
52106;SDS011;38105;52.968;5.974;2023-03-14T05:34:51;22.15;;;8.02;;
52106;SDS011;38105;52.968;5.974;2023-03-14T05:37:17;20.40;;;7.38;;
52106;SDS011;38105;52.968;5.974;2023-03-14T05:39:43;22.20;;;8.48;;
52106;SDS011;38105;52.968;5.974;2023-03-14T05:42:08;22.77;;;8.10;;
52106;SDS011;38105;52.968;5.974;2023-03-14T05:44:34;20.85;;;7.93;;
52106;SDS011;38105;52.968;5.974;2023-03-14T05:46:59;20.15;;;8.10;;
52106;SDS011;38105;52.968;5.974;2023-03-14T05:49:25;23.52;;;8.57;;
52106;SDS011;38105;52.968;5.974;2023-03-14T05:51:51;22.40;;;9.65;;
52106;SDS011;38105;52.968;5.974;2023-03-14T05:54:16;29.25;;;9.63;;
52106;SDS011;38105;52.968;5.974;2023-03-14T05:56:42;27.35;;;10.40;;
52106;SDS011;38105;52.968;5.974;2023-03-14T05:59:08;23.25;;;9.73;;
52106;SDS011;38105;52.968;5.974;2023-03-14T06:01:35;23.85;;;9.82;;
52106;SDS011;38105;52.968;5.974;2023-03-14T06:04:00;26.75;;;9.77;;
52106;SDS011;38105;52.968;5.974;2023-03-14T06:06:26;23.13;;;8.63;;
52106;SDS011;38105;52.968;5.974;2023-03-14T06:08:52;16.77;;;6.70;;
52106;SDS011;38105;52.968;5.974;2023-03-14T06:11:18;22.27;;;7.45;;
52106;SDS011;38105;52.968;5.974;2023-03-14T06:13:43;19.02;;;6.97;;
52106;SDS011;38105;52.968;5.974;2023-03-14T06:16:09;14.73;;;5.03;;
52106;SDS011;38105;52.968;5.974;2023-03-14T06:18:35;14.73;;;4.30;;
52106;SDS011;38105;52.968;5.974;2023-03-14T06:21:00;9.23;;;3.05;;
52106;SDS011;38105;52.968;5.974;2023-03-14T06:23:26;11.20;;;3.55;;
52106;SDS011;38105;52.968;5.974;2023-03-14T06:25:52;13.77;;;4.07;;
52106;SDS011;38105;52.968;5.974;2023-03-14T06:28:17;7.72;;;2.60;;
52106;SDS011;38105;52.968;5.974;2023-03-14T06:30:43;11.65;;;2.05;;
52106;SDS011;38105;52.968;5.974;2023-03-14T06:33:09;10.43;;;1.10;;
52106;SDS011;38105;52.968;5.974;2023-03-14T06:35:34;10.63;;;1.55;;
52106;SDS011;38105;52.968;5.974;2023-03-14T06:38:00;13.80;;;1.70;;
52106;SDS011;38105;52.968;5.974;2023-03-14T06:40:26;14.55;;;1.85;;
52106;SDS011;38105;52.968;5.974;2023-03-14T06:42:52;18.30;;;1.92;;
52106;SDS011;38105;52.968;5.974;2023-03-14T06:45:17;18.95;;;2.03;;
52106;SDS011;38105;52.968;5.974;2023-03-14T06:47:43;18.33;;;2.45;;
52106;SDS011;38105;52.968;5.974;2023-03-14T06:50:09;17.45;;;2.20;;
52106;SDS011;38105;52.968;5.974;2023-03-14T06:52:35;14.98;;;2.10;;
52106;SDS011;38105;52.968;5.974;2023-03-14T06:55:01;15.75;;;1.90;;
52106;SDS011;38105;52.968;5.974;2023-03-14T06:57:27;12.13;;;1.50;;
52106;SDS011;38105;52.968;5.974;2023-03-14T06:59:54;11.13;;;1.13;;
52106;SDS011;38105;52.968;5.974;2023-03-14T07:02:22;12.48;;;1.55;;
52106;SDS011;38105;52.968;5.974;2023-03-14T07:04:48;9.63;;;0.82;;
52106;SDS011;38105;52.968;5.974;2023-03-14T07:07:14;9.20;;;0.65;;
52106;SDS011;38105;52.968;5.974;2023-03-14T07:09:39;11.60;;;1.38;;
52106;SDS011;38105;52.968;5.974;2023-03-14T07:12:05;11.38;;;1.50;;
52106;SDS011;38105;52.968;5.974;2023-03-14T07:14:31;7.20;;;0.73;;
52106;SDS011;38105;52.968;5.974;2023-03-14T07:16:56;11.48;;;0.90;;
52106;SDS011;38105;52.968;5.974;2023-03-14T07:19:22;7.38;;;1.10;;
52106;SDS011;38105;52.968;5.974;2023-03-14T07:21:48;8.40;;;0.70;;
52106;SDS011;38105;52.968;5.974;2023-03-14T07:24:13;10.65;;;1.00;;
52106;SDS011;38105;52.968;5.974;2023-03-14T07:26:39;10.38;;;0.68;;
52106;SDS011;38105;52.968;5.974;2023-03-14T07:29:05;12.18;;;1.00;;
52106;SDS011;38105;52.968;5.974;2023-03-14T07:31:30;5.65;;;0.43;;
52106;SDS011;38105;52.968;5.974;2023-03-14T07:33:56;12.40;;;0.80;;
52106;SDS011;38105;52.968;5.974;2023-03-14T07:36:22;8.88;;;1.00;;
52106;SDS011;38105;52.968;5.974;2023-03-14T07:38:48;8.05;;;0.80;;
52106;SDS011;38105;52.968;5.974;2023-03-14T07:41:14;11.02;;;0.85;;
52106;SDS011;38105;52.968;5.974;2023-03-14T07:43:40;7.95;;;0.93;;
52106;SDS011;38105;52.968;5.974;2023-03-14T07:46:06;11.43;;;1.00;;
52106;SDS011;38105;52.968;5.974;2023-03-14T07:48:32;11.23;;;1.10;;
52106;SDS011;38105;52.968;5.974;2023-03-14T07:50:58;7.43;;;0.95;;
52106;SDS011;38105;52.968;5.974;2023-03-14T07:53:24;5.63;;;0.45;;
52106;SDS011;38105;52.968;5.974;2023-03-14T07:55:51;10.23;;;0.70;;
52106;SDS011;38105;52.968;5.974;2023-03-14T07:58:17;7.35;;;1.23;;
52106;SDS011;38105;52.968;5.974;2023-03-14T08:00:44;6.80;;;0.93;;
52106;SDS011;38105;52.968;5.974;2023-03-14T08:03:10;9.25;;;0.90;;
52106;SDS011;38105;52.968;5.974;2023-03-14T08:05:36;6.78;;;1.13;;
52106;SDS011;38105;52.968;5.974;2023-03-14T08:08:02;10.65;;;1.65;;
52106;SDS011;38105;52.968;5.974;2023-03-14T08:10:29;5.93;;;1.08;;
52106;SDS011;38105;52.968;5.974;2023-03-14T08:12:56;10.02;;;1.25;;
52106;SDS011;38105;52.968;5.974;2023-03-14T08:15:23;7.95;;;1.00;;
52106;SDS011;38105;52.968;5.974;2023-03-14T08:17:49;12.93;;;1.70;;
52106;SDS011;38105;52.968;5.974;2023-03-14T08:20:22;9.98;;;1.20;;
52106;SDS011;38105;52.968;5.974;2023-03-14T08:22:49;8.55;;;1.10;;
52106;SDS011;38105;52.968;5.974;2023-03-14T08:25:15;13.32;;;1.45;;
52106;SDS011;38105;52.968;5.974;2023-03-14T08:27:42;10.38;;;1.20;;
52106;SDS011;38105;52.968;5.974;2023-03-14T08:30:10;11.23;;;1.67;;
52106;SDS011;38105;52.968;5.974;2023-03-14T08:32:37;14.10;;;1.85;;
52106;SDS011;38105;52.968;5.974;2023-03-14T08:35:03;12.55;;;1.60;;
52106;SDS011;38105;52.968;5.974;2023-03-14T08:37:30;10.13;;;1.15;;
52106;SDS011;38105;52.968;5.974;2023-03-14T08:39:56;10.40;;;1.55;;
52106;SDS011;38105;52.968;5.974;2023-03-14T08:42:22;15.68;;;1.80;;
52106;SDS011;38105;52.968;5.974;2023-03-14T08:44:48;12.77;;;1.52;;
52106;SDS011;38105;52.968;5.974;2023-03-14T08:47:14;13.45;;;1.83;;
52106;SDS011;38105;52.968;5.974;2023-03-14T08:49:39;15.68;;;2.08;;
52106;SDS011;38105;52.968;5.974;2023-03-14T08:52:05;10.23;;;2.22;;
52106;SDS011;38105;52.968;5.974;2023-03-14T08:54:31;14.63;;;1.63;;
52106;SDS011;38105;52.968;5.974;2023-03-14T08:56:57;15.02;;;2.03;;
52106;SDS011;38105;52.968;5.974;2023-03-14T08:59:23;14.02;;;2.35;;
52106;SDS011;38105;52.968;5.974;2023-03-14T09:01:49;18.27;;;2.70;;
52106;SDS011;38105;52.968;5.974;2023-03-14T09:04:14;17.38;;;2.40;;
52106;SDS011;38105;52.968;5.974;2023-03-14T09:06:40;24.13;;;3.70;;
52106;SDS011;38105;52.968;5.974;2023-03-14T09:09:06;24.88;;;3.72;;
52106;SDS011;38105;52.968;5.974;2023-03-14T09:11:32;18.98;;;3.13;;
52106;SDS011;38105;52.968;5.974;2023-03-14T09:13:58;21.05;;;2.92;;
52106;SDS011;38105;52.968;5.974;2023-03-14T09:16:23;21.95;;;3.13;;
52106;SDS011;38105;52.968;5.974;2023-03-14T09:18:49;22.58;;;2.75;;
52106;SDS011;38105;52.968;5.974;2023-03-14T09:21:15;19.50;;;2.85;;
52106;SDS011;38105;52.968;5.974;2023-03-14T09:23:41;29.15;;;5.03;;
52106;SDS011;38105;52.968;5.974;2023-03-14T09:26:06;29.67;;;4.03;;
52106;SDS011;38105;52.968;5.974;2023-03-14T09:28:32;26.55;;;4.50;;
52106;SDS011;38105;52.968;5.974;2023-03-14T09:31:04;24.42;;;3.75;;
52106;SDS011;38105;52.968;5.974;2023-03-14T09:33:34;29.90;;;4.28;;
52106;SDS011;38105;52.968;5.974;2023-03-14T09:36:00;22.25;;;3.60;;
52106;SDS011;38105;52.968;5.974;2023-03-14T09:38:26;27.98;;;3.65;;
52106;SDS011;38105;52.968;5.974;2023-03-14T09:40:52;30.05;;;4.03;;
52106;SDS011;38105;52.968;5.974;2023-03-14T09:43:19;26.92;;;5.13;;
52106;SDS011;38105;52.968;5.974;2023-03-14T09:45:47;27.33;;;3.58;;
52106;SDS011;38105;52.968;5.974;2023-03-14T09:48:16;23.30;;;3.88;;
52106;SDS011;38105;52.968;5.974;2023-03-14T09:50:50;24.20;;;3.72;;
52106;SDS011;38105;52.968;5.974;2023-03-14T09:53:19;22.67;;;3.57;;
52106;SDS011;38105;52.968;5.974;2023-03-14T09:55:50;22.55;;;3.58;;
52106;SDS011;38105;52.968;5.974;2023-03-14T09:58:19;24.88;;;3.53;;
52106;SDS011;38105;52.968;5.974;2023-03-14T10:00:46;20.25;;;4.07;;
52106;SDS011;38105;52.968;5.974;2023-03-14T10:05:37;34.15;;;4.28;;
52106;SDS011;38105;52.968;5.974;2023-03-14T10:08:04;26.05;;;3.60;;
52106;SDS011;38105;52.968;5.974;2023-03-14T10:10:30;26.98;;;3.10;;
52106;SDS011;38105;52.968;5.974;2023-03-14T10:12:58;23.38;;;4.15;;
52106;SDS011;38105;52.968;5.974;2023-03-14T10:15:31;20.85;;;2.85;;
52106;SDS011;38105;52.968;5.974;2023-03-14T10:18:00;28.48;;;4.13;;
52106;SDS011;38105;52.968;5.974;2023-03-14T10:23:00;25.25;;;3.97;;
52106;SDS011;38105;52.968;5.974;2023-03-14T10:28:50;18.40;;;2.65;;
52106;SDS011;38105;52.968;5.974;2023-03-14T10:31:17;22.38;;;4.25;;
52106;SDS011;38105;52.968;5.974;2023-03-14T10:33:43;21.25;;;3.08;;
52106;SDS011;38105;52.968;5.974;2023-03-14T10:36:24;20.05;;;2.65;;
52106;SDS011;38105;52.968;5.974;2023-03-14T10:42:12;18.90;;;2.88;;
52106;SDS011;38105;52.968;5.974;2023-03-14T10:44:49;12.10;;;2.35;;
52106;SDS011;38105;52.968;5.974;2023-03-14T10:47:22;20.08;;;2.80;;
52106;SDS011;38105;52.968;5.974;2023-03-14T10:49:49;14.70;;;2.67;;
52106;SDS011;38105;52.968;5.974;2023-03-14T10:52:19;18.60;;;3.20;;
52106;SDS011;38105;52.968;5.974;2023-03-14T10:55:00;19.17;;;2.67;;
52106;SDS011;38105;52.968;5.974;2023-03-14T10:57:29;12.30;;;2.35;;
52106;SDS011;38105;52.968;5.974;2023-03-14T10:59:55;12.93;;;2.13;;
52106;SDS011;38105;52.968;5.974;2023-03-14T11:20:59;13.60;;;2.00;;
52106;SDS011;38105;52.968;5.974;2023-03-14T11:26:59;12.18;;;2.20;;
52106;SDS011;38105;52.968;5.974;2023-03-14T11:32:09;9.15;;;1.60;;
52106;SDS011;38105;52.968;5.974;2023-03-14T11:34:48;13.63;;;1.40;;
52106;SDS011;38105;52.968;5.974;2023-03-14T11:42:35;9.23;;;1.50;;
52106;SDS011;38105;52.968;5.974;2023-03-14T11:45:02;8.80;;;1.52;;
52106;SDS011;38105;52.968;5.974;2023-03-14T11:47:40;10.52;;;1.60;;
52106;SDS011;38105;52.968;5.974;2023-03-14T11:50:12;6.43;;;1.48;;
52106;SDS011;38105;52.968;5.974;2023-03-14T11:55:35;8.85;;;1.48;;
52106;SDS011;38105;52.968;5.974;2023-03-14T11:58:09;10.15;;;1.70;;
52106;SDS011;38105;52.968;5.974;2023-03-14T12:00:46;8.13;;;1.13;;
52106;SDS011;38105;52.968;5.974;2023-03-14T12:08:37;13.15;;;1.73;;
52106;SDS011;38105;52.968;5.974;2023-03-14T12:11:19;11.07;;;1.73;;
52106;SDS011;38105;52.968;5.974;2023-03-14T12:16:55;12.35;;;2.10;;
52106;SDS011;38105;52.968;5.974;2023-03-14T12:21:58;14.65;;;2.13;;
52106;SDS011;38105;52.968;5.974;2023-03-14T12:24:33;13.38;;;2.47;;
52106;SDS011;38105;52.968;5.974;2023-03-14T12:27:02;17.08;;;2.20;;
52106;SDS011;38105;52.968;5.974;2023-03-14T12:29:29;13.40;;;2.20;;
52106;SDS011;38105;52.968;5.974;2023-03-14T12:35:05;11.10;;;2.03;;
52106;SDS011;38105;52.968;5.974;2023-03-14T12:37:52;14.90;;;1.80;;
52106;SDS011;38105;52.968;5.974;2023-03-14T12:40:21;8.85;;;1.67;;
52106;SDS011;38105;52.968;5.974;2023-03-14T12:43:00;11.43;;;2.05;;
52106;SDS011;38105;52.968;5.974;2023-03-14T12:45:31;12.05;;;1.80;;
52106;SDS011;38105;52.968;5.974;2023-03-14T12:48:30;9.52;;;1.45;;
52106;SDS011;38105;52.968;5.974;2023-03-14T12:51:03;5.47;;;1.13;;
52106;SDS011;38105;52.968;5.974;2023-03-14T12:53:45;8.52;;;1.23;;
52106;SDS011;38105;52.968;5.974;2023-03-14T12:56:45;7.40;;;1.30;;
52106;SDS011;38105;52.968;5.974;2023-03-14T13:01:56;9.95;;;1.42;;
52106;SDS011;38105;52.968;5.974;2023-03-14T13:12:56;12.13;;;1.50;;
52106;SDS011;38105;52.968;5.974;2023-03-14T13:15:40;12.18;;;1.70;;
52106;SDS011;38105;52.968;5.974;2023-03-14T13:18:14;8.70;;;1.55;;
52106;SDS011;38105;52.968;5.974;2023-03-14T13:20:48;11.55;;;1.58;;
52106;SDS011;38105;52.968;5.974;2023-03-14T13:23:22;11.38;;;1.30;;
52106;SDS011;38105;52.968;5.974;2023-03-14T13:25:50;9.25;;;1.85;;
52106;SDS011;38105;52.968;5.974;2023-03-14T13:28:16;15.88;;;1.73;;
52106;SDS011;38105;52.968;5.974;2023-03-14T13:30:46;7.82;;;1.63;;
52106;SDS011;38105;52.968;5.974;2023-03-14T13:33:17;11.18;;;2.65;;
52106;SDS011;38105;52.968;5.974;2023-03-14T13:35:46;9.90;;;1.92;;
52106;SDS011;38105;52.968;5.974;2023-03-14T13:38:23;9.65;;;1.77;;
52106;SDS011;38105;52.968;5.974;2023-03-14T13:40:51;7.95;;;1.70;;
52106;SDS011;38105;52.968;5.974;2023-03-14T13:43:25;12.30;;;1.63;;
52106;SDS011;38105;52.968;5.974;2023-03-14T13:48:30;8.25;;;1.52;;
52106;SDS011;38105;52.968;5.974;2023-03-14T13:51:01;7.40;;;1.52;;
52106;SDS011;38105;52.968;5.974;2023-03-14T13:53:30;7.83;;;1.37;;
52106;SDS011;38105;52.968;5.974;2023-03-14T13:55:56;15.25;;;1.55;;
52106;SDS011;38105;52.968;5.974;2023-03-14T13:58:27;7.90;;;1.50;;
52106;SDS011;38105;52.968;5.974;2023-03-14T14:01:01;11.20;;;1.52;;
52106;SDS011;38105;52.968;5.974;2023-03-14T14:03:31;8.27;;;1.48;;
52106;SDS011;38105;52.968;5.974;2023-03-14T14:05:59;7.90;;;1.30;;
52106;SDS011;38105;52.968;5.974;2023-03-14T14:08:25;8.93;;;1.40;;
52106;SDS011;38105;52.968;5.974;2023-03-14T14:10:53;10.77;;;1.63;;
52106;SDS011;38105;52.968;5.974;2023-03-14T14:13:23;6.97;;;1.15;;
52106;SDS011;38105;52.968;5.974;2023-03-14T14:15:51;8.70;;;1.30;;
52106;SDS011;38105;52.968;5.974;2023-03-14T14:18:18;8.13;;;1.25;;
52106;SDS011;38105;52.968;5.974;2023-03-14T14:20:47;6.43;;;1.23;;
52106;SDS011;38105;52.968;5.974;2023-03-14T14:25:41;12.18;;;2.10;;
52106;SDS011;38105;52.968;5.974;2023-03-14T14:28:21;13.55;;;1.60;;
52106;SDS011;38105;52.968;5.974;2023-03-14T14:34:01;8.25;;;1.20;;
52106;SDS011;38105;52.968;5.974;2023-03-14T14:36:32;11.85;;;1.75;;
52106;SDS011;38105;52.968;5.974;2023-03-14T14:39:22;8.95;;;1.88;;
52106;SDS011;38105;52.968;5.974;2023-03-14T14:41:50;15.35;;;2.38;;
52106;SDS011;38105;52.968;5.974;2023-03-14T14:44:18;10.93;;;1.95;;
52106;SDS011;38105;52.968;5.974;2023-03-14T14:46:57;12.05;;;2.25;;
52106;SDS011;38105;52.968;5.974;2023-03-14T14:49:28;11.68;;;1.70;;
52106;SDS011;38105;52.968;5.974;2023-03-14T14:52:17;14.52;;;2.33;;
52106;SDS011;38105;52.968;5.974;2023-03-14T14:54:58;14.98;;;2.65;;
52106;SDS011;38105;52.968;5.974;2023-03-14T14:57:25;14.65;;;2.33;;
52106;SDS011;38105;52.968;5.974;2023-03-14T14:59:56;11.50;;;2.30;;
52106;SDS011;38105;52.968;5.974;2023-03-14T15:04:57;14.32;;;2.15;;
52106;SDS011;38105;52.968;5.974;2023-03-14T15:07:22;17.25;;;2.97;;
52106;SDS011;38105;52.968;5.974;2023-03-14T15:09:48;19.80;;;2.65;;
52106;SDS011;38105;52.968;5.974;2023-03-14T15:12:14;17.70;;;2.25;;
52106;SDS011;38105;52.968;5.974;2023-03-14T15:14:39;11.45;;;2.03;;
52106;SDS011;38105;52.968;5.974;2023-03-14T15:17:05;11.88;;;2.05;;
52106;SDS011;38105;52.968;5.974;2023-03-14T15:19:35;9.35;;;1.85;;
52106;SDS011;38105;52.968;5.974;2023-03-14T15:22:01;13.77;;;2.15;;
52106;SDS011;38105;52.968;5.974;2023-03-14T15:24:27;13.85;;;1.90;;
52106;SDS011;38105;52.968;5.974;2023-03-14T15:26:52;9.15;;;1.65;;
52106;SDS011;38105;52.968;5.974;2023-03-14T15:29:18;11.70;;;1.60;;
52106;SDS011;38105;52.968;5.974;2023-03-14T15:31:44;8.80;;;1.35;;
52106;SDS011;38105;52.968;5.974;2023-03-14T15:34:09;9.25;;;1.38;;
52106;SDS011;38105;52.968;5.974;2023-03-14T15:36:35;12.80;;;1.83;;
52106;SDS011;38105;52.968;5.974;2023-03-14T15:39:02;9.75;;;1.80;;
52106;SDS011;38105;52.968;5.974;2023-03-14T15:41:30;13.95;;;2.47;;
52106;SDS011;38105;52.968;5.974;2023-03-14T15:43:56;8.40;;;1.95;;
52106;SDS011;38105;52.968;5.974;2023-03-14T15:46:22;13.27;;;1.67;;
52106;SDS011;38105;52.968;5.974;2023-03-14T15:48:49;11.90;;;1.83;;
52106;SDS011;38105;52.968;5.974;2023-03-14T15:51:15;10.75;;;1.80;;
52106;SDS011;38105;52.968;5.974;2023-03-14T15:53:42;16.20;;;2.08;;
52106;SDS011;38105;52.968;5.974;2023-03-14T15:56:15;11.13;;;1.85;;
52106;SDS011;38105;52.968;5.974;2023-03-14T15:58:43;17.88;;;1.90;;
52106;SDS011;38105;52.968;5.974;2023-03-14T16:01:11;9.95;;;2.45;;
52106;SDS011;38105;52.968;5.974;2023-03-14T16:03:38;16.65;;;2.15;;
52106;SDS011;38105;52.968;5.974;2023-03-14T16:06:03;15.57;;;2.30;;